sensor_id;sensor_type;location;lat;lon;timestamp;temperature;humidity
1978;DHT22;989;53.016;8.346;2022-07-10T00:00:42;13.10;7.00
1978;DHT22;989;53.016;8.346;2022-07-10T00:03:09;13.10;7.60
1978;DHT22;989;53.016;8.346;2022-07-10T00:05:35;13.10;8.60
1978;DHT22;989;53.016;8.346;2022-07-10T00:08:01;13.10;9.50
1978;DHT22;989;53.016;8.346;2022-07-10T00:10:27;13.10;9.90
1978;DHT22;989;53.016;8.346;2022-07-10T00:12:54;13.10;10.80
1978;DHT22;989;53.016;8.346;2022-07-10T00:15:21;13.10;11.50
1978;DHT22;989;53.016;8.346;2022-07-10T00:17:48;13.10;13.00
1978;DHT22;989;53.016;8.346;2022-07-10T00:20:15;13.00;14.70
1978;DHT22;989;53.016;8.346;2022-07-10T00:22:41;13.00;15.00
1978;DHT22;989;53.016;8.346;2022-07-10T00:25:10;13.00;16.60
1978;DHT22;989;53.016;8.346;2022-07-10T00:27:37;13.00;17.20
1978;DHT22;989;53.016;8.346;2022-07-10T00:30:03;13.00;17.20
1978;DHT22;989;53.016;8.346;2022-07-10T00:32:29;13.00;19.40
1978;DHT22;989;53.016;8.346;2022-07-10T00:34:55;12.90;20.10
1978;DHT22;989;53.016;8.346;2022-07-10T00:37:21;12.90;20.70
1978;DHT22;989;53.016;8.346;2022-07-10T00:39:48;12.90;21.40
1978;DHT22;989;53.016;8.346;2022-07-10T00:42:15;12.90;22.10
1978;DHT22;989;53.016;8.346;2022-07-10T00:44:42;12.90;22.40
1978;DHT22;989;53.016;8.346;2022-07-10T00:47:09;12.90;23.00
1978;DHT22;989;53.016;8.346;2022-07-10T00:49:38;12.80;23.40
1978;DHT22;989;53.016;8.346;2022-07-10T00:52:06;12.80;24.00
1978;DHT22;989;53.016;8.346;2022-07-10T00:54:34;12.80;24.60
1978;DHT22;989;53.016;8.346;2022-07-10T00:57:03;12.80;24.70
1978;DHT22;989;53.016;8.346;2022-07-10T00:59:31;12.80;24.30
1978;DHT22;989;53.016;8.346;2022-07-10T01:01:57;12.80;24.10
1978;DHT22;989;53.016;8.346;2022-07-10T01:04:24;12.80;23.60
1978;DHT22;989;53.016;8.346;2022-07-10T01:06:50;12.90;23.60
1978;DHT22;989;53.016;8.346;2022-07-10T01:09:16;12.80;24.30
1978;DHT22;989;53.016;8.346;2022-07-10T01:11:42;12.90;21.60
1978;DHT22;989;53.016;8.346;2022-07-10T01:14:10;12.90;20.80
1978;DHT22;989;53.016;8.346;2022-07-10T01:16:36;12.90;19.80
1978;DHT22;989;53.016;8.346;2022-07-10T01:19:03;13.00;18.90
1978;DHT22;989;53.016;8.346;2022-07-10T01:21:30;13.00;18.70
1978;DHT22;989;53.016;8.346;2022-07-10T01:23:57;13.00;17.20
1978;DHT22;989;53.016;8.346;2022-07-10T01:26:24;13.00;17.20
1978;DHT22;989;53.016;8.346;2022-07-10T01:28:51;13.00;16.70
1978;DHT22;989;53.016;8.346;2022-07-10T01:31:27;13.00;17.10
1978;DHT22;989;53.016;8.346;2022-07-10T01:33:54;13.00;17.20
1978;DHT22;989;53.016;8.346;2022-07-10T01:36:21;12.90;18.90
1978;DHT22;989;53.016;8.346;2022-07-10T01:38:49;12.90;20.20
1978;DHT22;989;53.016;8.346;2022-07-10T01:41:16;12.80;21.70
1978;DHT22;989;53.016;8.346;2022-07-10T01:43:42;12.70;23.10
1978;DHT22;989;53.016;8.346;2022-07-10T01:46:11;12.70;23.00
1978;DHT22;989;53.016;8.346;2022-07-10T01:48:38;12.60;23.50
1978;DHT22;989;53.016;8.346;2022-07-10T01:51:05;12.50;25.00
1978;DHT22;989;53.016;8.346;2022-07-10T01:53:31;12.50;26.20
1978;DHT22;989;53.016;8.346;2022-07-10T01:55:58;12.50;26.60
1978;DHT22;989;53.016;8.346;2022-07-10T01:58:24;12.40;28.10
1978;DHT22;989;53.016;8.346;2022-07-10T02:00:50;12.40;28.60
1978;DHT22;989;53.016;8.346;2022-07-10T02:03:16;12.40;29.20
1978;DHT22;989;53.016;8.346;2022-07-10T02:06:01;12.50;26.60
1978;DHT22;989;53.016;8.346;2022-07-10T02:08:27;12.50;26.60
1978;DHT22;989;53.016;8.346;2022-07-10T02:10:53;12.50;26.30
1978;DHT22;989;53.016;8.346;2022-07-10T02:13:20;12.50;26.60
1978;DHT22;989;53.016;8.346;2022-07-10T02:15:50;12.50;24.60
1978;DHT22;989;53.016;8.346;2022-07-10T02:18:16;12.60;24.00
1978;DHT22;989;53.016;8.346;2022-07-10T02:20:42;12.60;23.40
1978;DHT22;989;53.016;8.346;2022-07-10T02:23:08;12.50;23.20
1978;DHT22;989;53.016;8.346;2022-07-10T02:25:34;12.50;23.00
1978;DHT22;989;53.016;8.346;2022-07-10T02:28:00;12.40;24.00
1978;DHT22;989;53.016;8.346;2022-07-10T02:30:26;12.30;25.20
1978;DHT22;989;53.016;8.346;2022-07-10T02:32:52;12.20;26.50
1978;DHT22;989;53.016;8.346;2022-07-10T02:35:18;12.20;27.60
1978;DHT22;989;53.016;8.346;2022-07-10T02:37:44;12.00;27.90
1978;DHT22;989;53.016;8.346;2022-07-10T02:40:10;12.00;31.30
1978;DHT22;989;53.016;8.346;2022-07-10T02:42:37;12.00;32.60
1978;DHT22;989;53.016;8.346;2022-07-10T02:45:03;11.90;35.30
1978;DHT22;989;53.016;8.346;2022-07-10T02:47:30;12.00;34.60
1978;DHT22;989;53.016;8.346;2022-07-10T02:49:56;12.10;33.00
1978;DHT22;989;53.016;8.346;2022-07-10T02:52:22;12.10;31.30
1978;DHT22;989;53.016;8.346;2022-07-10T02:54:48;12.20;31.40
1978;DHT22;989;53.016;8.346;2022-07-10T02:57:14;12.20;30.00
1978;DHT22;989;53.016;8.346;2022-07-10T02:59:40;12.20;29.20
1978;DHT22;989;53.016;8.346;2022-07-10T03:02:06;12.20;29.00
1978;DHT22;989;53.016;8.346;2022-07-10T03:04:33;12.30;28.30
1978;DHT22;989;53.016;8.346;2022-07-10T03:06:59;12.30;27.40
1978;DHT22;989;53.016;8.346;2022-07-10T03:09:25;12.30;26.50
1978;DHT22;989;53.016;8.346;2022-07-10T03:11:52;12.40;25.70
1978;DHT22;989;53.016;8.346;2022-07-10T03:14:18;12.40;26.30
1978;DHT22;989;53.016;8.346;2022-07-10T03:16:44;12.40;26.40
1978;DHT22;989;53.016;8.346;2022-07-10T03:19:10;12.40;25.80
1978;DHT22;989;53.016;8.346;2022-07-10T03:21:36;12.40;24.60
1978;DHT22;989;53.016;8.346;2022-07-10T03:24:02;12.40;24.40
1978;DHT22;989;53.016;8.346;2022-07-10T03:26:28;12.50;24.10
1978;DHT22;989;53.016;8.346;2022-07-10T03:28:55;12.50;23.20
1978;DHT22;989;53.016;8.346;2022-07-10T03:31:22;12.50;22.80
1978;DHT22;989;53.016;8.346;2022-07-10T03:33:48;12.50;21.80
1978;DHT22;989;53.016;8.346;2022-07-10T03:36:14;12.60;21.80
1978;DHT22;989;53.016;8.346;2022-07-10T03:38:40;12.50;22.00
1978;DHT22;989;53.016;8.346;2022-07-10T03:41:06;12.50;22.60
1978;DHT22;989;53.016;8.346;2022-07-10T03:43:33;12.40;24.20
1978;DHT22;989;53.016;8.346;2022-07-10T03:45:59;12.30;24.70
1978;DHT22;989;53.016;8.346;2022-07-10T03:48:25;12.20;26.40
1978;DHT22;989;53.016;8.346;2022-07-10T03:50:52;12.30;27.40
1978;DHT22;989;53.016;8.346;2022-07-10T03:53:18;12.30;26.50
1978;DHT22;989;53.016;8.346;2022-07-10T03:55:45;12.30;26.50
1978;DHT22;989;53.016;8.346;2022-07-10T03:58:11;12.30;26.50
1978;DHT22;989;53.016;8.346;2022-07-10T04:00:37;12.30;26.50
1978;DHT22;989;53.016;8.346;2022-07-10T04:03:05;12.40;26.50
1978;DHT22;989;53.016;8.346;2022-07-10T04:05:32;12.40;26.20
1978;DHT22;989;53.016;8.346;2022-07-10T04:07:59;12.50;24.80
1978;DHT22;989;53.016;8.346;2022-07-10T04:10:27;12.50;24.30
1978;DHT22;989;53.016;8.346;2022-07-10T04:12:54;12.70;22.80
1978;DHT22;989;53.016;8.346;2022-07-10T04:15:21;12.90;20.40
1978;DHT22;989;53.016;8.346;2022-07-10T04:17:51;12.90;19.20
1978;DHT22;989;53.016;8.346;2022-07-10T04:20:17;13.00;18.70
1978;DHT22;989;53.016;8.346;2022-07-10T04:22:44;13.10;16.00
1978;DHT22;989;53.016;8.346;2022-07-10T04:25:13;13.30;15.80
1978;DHT22;989;53.016;8.346;2022-07-10T04:27:39;13.40;12.40
1978;DHT22;989;53.016;8.346;2022-07-10T04:30:07;13.50;11.70
1978;DHT22;989;53.016;8.346;2022-07-10T04:32:33;13.50;10.80
1978;DHT22;989;53.016;8.346;2022-07-10T04:34:59;13.70;10.60
1978;DHT22;989;53.016;8.346;2022-07-10T04:37:26;14.00;6.20
1978;DHT22;989;53.016;8.346;2022-07-10T04:39:53;14.10;2.50
1978;DHT22;989;53.016;8.346;2022-07-10T04:42:20;14.10;5.70
1978;DHT22;989;53.016;8.346;2022-07-10T04:44:46;14.40;1.20
1978;DHT22;989;53.016;8.346;2022-07-10T04:47:12;14.40;1.00
1978;DHT22;989;53.016;8.346;2022-07-10T04:49:38;14.20;1.00
1978;DHT22;989;53.016;8.346;2022-07-10T04:52:04;13.80;7.50
1978;DHT22;989;53.016;8.346;2022-07-10T04:54:31;14.20;5.20
1978;DHT22;989;53.016;8.346;2022-07-10T04:56:57;14.50;1.00
1978;DHT22;989;53.016;8.346;2022-07-10T04:59:24;14.90;1.00
1978;DHT22;989;53.016;8.346;2022-07-10T05:01:50;14.90;1.00
1978;DHT22;989;53.016;8.346;2022-07-10T05:04:16;15.30;1.00
1978;DHT22;989;53.016;8.346;2022-07-10T05:06:42;15.40;1.00
1978;DHT22;989;53.016;8.346;2022-07-10T05:09:08;15.70;1.00
1978;DHT22;989;53.016;8.346;2022-07-10T05:11:34;15.80;1.00
1978;DHT22;989;53.016;8.346;2022-07-10T05:14:00;15.70;1.00
1978;DHT22;989;53.016;8.346;2022-07-10T05:16:26;15.80;1.00
1978;DHT22;989;53.016;8.346;2022-07-10T05:18:52;15.50;1.00
1978;DHT22;989;53.016;8.346;2022-07-10T05:21:18;15.10;1.00
1978;DHT22;989;53.016;8.346;2022-07-10T05:23:44;15.10;1.00
1978;DHT22;989;53.016;8.346;2022-07-10T05:26:10;15.30;1.00
1978;DHT22;989;53.016;8.346;2022-07-10T05:28:36;15.70;1.00
1978;DHT22;989;53.016;8.346;2022-07-10T05:31:02;15.80;1.00
1978;DHT22;989;53.016;8.346;2022-07-10T05:33:28;15.90;1.00
1978;DHT22;989;53.016;8.346;2022-07-10T05:35:55;16.20;1.00
1978;DHT22;989;53.016;8.346;2022-07-10T05:38:21;16.20;1.00
1978;DHT22;989;53.016;8.346;2022-07-10T05:40:47;15.50;1.00
1978;DHT22;989;53.016;8.346;2022-07-10T05:43:14;15.00;1.00
1978;DHT22;989;53.016;8.346;2022-07-10T05:45:40;14.80;1.00
1978;DHT22;989;53.016;8.346;2022-07-10T05:48:06;14.80;1.00
1978;DHT22;989;53.016;8.346;2022-07-10T05:50:32;14.80;1.00
1978;DHT22;989;53.016;8.346;2022-07-10T05:52:59;14.90;1.00
1978;DHT22;989;53.016;8.346;2022-07-10T05:55:25;14.70;1.00
1978;DHT22;989;53.016;8.346;2022-07-10T05:57:51;14.70;1.00
1978;DHT22;989;53.016;8.346;2022-07-10T06:00:17;14.60;2.00
1978;DHT22;989;53.016;8.346;2022-07-10T06:02:43;14.40;1.00
1978;DHT22;989;53.016;8.346;2022-07-10T06:05:09;14.30;1.00
1978;DHT22;989;53.016;8.346;2022-07-10T06:07:35;14.10;9.50
1978;DHT22;989;53.016;8.346;2022-07-10T06:10:03;13.60;19.90
1978;DHT22;989;53.016;8.346;2022-07-10T06:12:29;13.30;33.60
1978;DHT22;989;53.016;8.346;2022-07-10T06:14:56;13.20;44.30
1978;DHT22;989;53.016;8.346;2022-07-10T06:17:22;13.10;47.00
1978;DHT22;989;53.016;8.346;2022-07-10T06:19:48;13.10;49.70
1978;DHT22;989;53.016;8.346;2022-07-10T06:22:14;13.10;52.30
1978;DHT22;989;53.016;8.346;2022-07-10T06:25:01;13.00;50.40
1978;DHT22;989;53.016;8.346;2022-07-10T06:27:27;13.00;55.60
1978;DHT22;989;53.016;8.346;2022-07-10T06:29:54;13.10;57.50
1978;DHT22;989;53.016;8.346;2022-07-10T06:32:20;13.20;56.50
1978;DHT22;989;53.016;8.346;2022-07-10T06:34:46;13.40;54.40
1978;DHT22;989;53.016;8.346;2022-07-10T06:37:12;13.90;48.30
1978;DHT22;989;53.016;8.346;2022-07-10T06:39:38;14.30;34.40
1978;DHT22;989;53.016;8.346;2022-07-10T06:42:06;14.80;22.10
1978;DHT22;989;53.016;8.346;2022-07-10T06:44:32;14.90;15.80
1978;DHT22;989;53.016;8.346;2022-07-10T06:46:59;14.70;20.80
1978;DHT22;989;53.016;8.346;2022-07-10T06:49:45;15.00;18.20
1978;DHT22;989;53.016;8.346;2022-07-10T06:52:12;15.50;5.20
1978;DHT22;989;53.016;8.346;2022-07-10T06:54:38;16.10;2.20
1978;DHT22;989;53.016;8.346;2022-07-10T06:57:05;15.90;1.00
1978;DHT22;989;53.016;8.346;2022-07-10T06:59:31;15.90;1.00
1978;DHT22;989;53.016;8.346;2022-07-10T07:01:57;15.80;1.00
1978;DHT22;989;53.016;8.346;2022-07-10T07:04:23;15.60;1.00
1978;DHT22;989;53.016;8.346;2022-07-10T07:06:49;15.40;1.00
1978;DHT22;989;53.016;8.346;2022-07-10T07:09:15;15.60;1.00
1978;DHT22;989;53.016;8.346;2022-07-10T07:11:41;15.60;1.00
1978;DHT22;989;53.016;8.346;2022-07-10T07:14:07;15.50;1.00
1978;DHT22;989;53.016;8.346;2022-07-10T07:16:33;15.70;1.00
1978;DHT22;989;53.016;8.346;2022-07-10T07:19:10;15.70;1.00
1978;DHT22;989;53.016;8.346;2022-07-10T07:21:37;15.60;1.00
1978;DHT22;989;53.016;8.346;2022-07-10T07:24:22;15.80;1.00
1978;DHT22;989;53.016;8.346;2022-07-10T07:26:48;15.70;1.00
1978;DHT22;989;53.016;8.346;2022-07-10T07:29:15;16.00;1.00
1978;DHT22;989;53.016;8.346;2022-07-10T07:31:42;15.70;1.00
1978;DHT22;989;53.016;8.346;2022-07-10T07:34:11;15.50;1.00
1978;DHT22;989;53.016;8.346;2022-07-10T07:36:37;15.60;1.00
1978;DHT22;989;53.016;8.346;2022-07-10T07:39:04;16.00;1.00
1978;DHT22;989;53.016;8.346;2022-07-10T07:41:30;16.40;1.00
1978;DHT22;989;53.016;8.346;2022-07-10T07:43:56;16.40;1.00
1978;DHT22;989;53.016;8.346;2022-07-10T07:46:22;16.90;1.00
1978;DHT22;989;53.016;8.346;2022-07-10T07:48:50;17.20;1.00
1978;DHT22;989;53.016;8.346;2022-07-10T07:51:16;17.80;1.00
1978;DHT22;989;53.016;8.346;2022-07-10T07:53:42;17.70;1.00
1978;DHT22;989;53.016;8.346;2022-07-10T07:56:08;17.50;1.00
1978;DHT22;989;53.016;8.346;2022-07-10T07:58:34;17.70;1.00
1978;DHT22;989;53.016;8.346;2022-07-10T08:01:00;17.40;1.00
1978;DHT22;989;53.016;8.346;2022-07-10T08:03:26;16.80;1.00
1978;DHT22;989;53.016;8.346;2022-07-10T08:05:52;16.70;1.00
1978;DHT22;989;53.016;8.346;2022-07-10T08:08:18;16.90;1.00
1978;DHT22;989;53.016;8.346;2022-07-10T08:10:44;16.90;1.00
1978;DHT22;989;53.016;8.346;2022-07-10T08:13:10;16.90;1.00
1978;DHT22;989;53.016;8.346;2022-07-10T08:15:37;16.80;1.00
1978;DHT22;989;53.016;8.346;2022-07-10T08:18:03;17.00;1.00
1978;DHT22;989;53.016;8.346;2022-07-10T08:20:30;17.70;1.00
1978;DHT22;989;53.016;8.346;2022-07-10T08:22:56;18.10;1.00
1978;DHT22;989;53.016;8.346;2022-07-10T08:25:23;18.40;1.00
1978;DHT22;989;53.016;8.346;2022-07-10T08:27:49;18.50;1.00
1978;DHT22;989;53.016;8.346;2022-07-10T08:30:16;18.30;1.00
1978;DHT22;989;53.016;8.346;2022-07-10T08:32:42;18.20;1.00
1978;DHT22;989;53.016;8.346;2022-07-10T08:35:10;18.40;1.00
1978;DHT22;989;53.016;8.346;2022-07-10T08:37:43;18.70;1.00
1978;DHT22;989;53.016;8.346;2022-07-10T08:40:10;19.30;1.00
1978;DHT22;989;53.016;8.346;2022-07-10T08:42:37;19.60;1.00
1978;DHT22;989;53.016;8.346;2022-07-10T08:45:03;18.40;1.00
1978;DHT22;989;53.016;8.346;2022-07-10T08:47:29;17.80;1.00
1978;DHT22;989;53.016;8.346;2022-07-10T08:49:57;17.70;1.00
1978;DHT22;989;53.016;8.346;2022-07-10T08:52:33;18.00;1.00
1978;DHT22;989;53.016;8.346;2022-07-10T08:55:00;17.60;1.00
1978;DHT22;989;53.016;8.346;2022-07-10T08:57:26;17.50;1.00
1978;DHT22;989;53.016;8.346;2022-07-10T08:59:55;17.10;1.00
1978;DHT22;989;53.016;8.346;2022-07-10T09:02:21;16.70;1.00
1978;DHT22;989;53.016;8.346;2022-07-10T09:04:47;16.90;1.00
1978;DHT22;989;53.016;8.346;2022-07-10T09:07:13;17.70;1.00
1978;DHT22;989;53.016;8.346;2022-07-10T09:09:59;17.70;1.00
1978;DHT22;989;53.016;8.346;2022-07-10T09:12:54;17.50;1.00
1978;DHT22;989;53.016;8.346;2022-07-10T09:15:22;17.50;1.00
1978;DHT22;989;53.016;8.346;2022-07-10T09:17:53;18.60;1.00
1978;DHT22;989;53.016;8.346;2022-07-10T09:20:33;18.30;1.00
1978;DHT22;989;53.016;8.346;2022-07-10T09:23:15;17.90;1.00
1978;DHT22;989;53.016;8.346;2022-07-10T09:25:45;17.80;1.00
1978;DHT22;989;53.016;8.346;2022-07-10T09:28:15;17.20;1.00
1978;DHT22;989;53.016;8.346;2022-07-10T09:30:42;17.20;1.00
1978;DHT22;989;53.016;8.346;2022-07-10T09:33:22;16.80;1.00
1978;DHT22;989;53.016;8.346;2022-07-10T09:36:06;17.10;1.00
1978;DHT22;989;53.016;8.346;2022-07-10T09:41:15;16.90;1.00
1978;DHT22;989;53.016;8.346;2022-07-10T09:44:04;16.60;1.00
1978;DHT22;989;53.016;8.346;2022-07-10T09:46:35;16.30;1.00
1978;DHT22;989;53.016;8.346;2022-07-10T09:49:12;16.40;1.00
1978;DHT22;989;53.016;8.346;2022-07-10T09:51:40;16.60;1.00
1978;DHT22;989;53.016;8.346;2022-07-10T09:54:08;16.70;1.00
1978;DHT22;989;53.016;8.346;2022-07-10T09:56:40;16.70;1.00
1978;DHT22;989;53.016;8.346;2022-07-10T09:59:10;16.90;1.00
1978;DHT22;989;53.016;8.346;2022-07-10T10:01:36;17.10;1.00
1978;DHT22;989;53.016;8.346;2022-07-10T10:04:04;17.10;1.00
1978;DHT22;989;53.016;8.346;2022-07-10T10:06:30;17.50;1.00
1978;DHT22;989;53.016;8.346;2022-07-10T10:09:03;17.70;1.00
1978;DHT22;989;53.016;8.346;2022-07-10T10:11:32;18.60;1.00
1978;DHT22;989;53.016;8.346;2022-07-10T10:14:01;18.50;1.00
1978;DHT22;989;53.016;8.346;2022-07-10T10:16:29;18.20;1.00
1978;DHT22;989;53.016;8.346;2022-07-10T10:18:55;17.80;1.00
1978;DHT22;989;53.016;8.346;2022-07-10T10:21:40;17.00;1.00
1978;DHT22;989;53.016;8.346;2022-07-10T10:24:06;16.80;1.00
1978;DHT22;989;53.016;8.346;2022-07-10T10:26:32;16.90;1.00
1978;DHT22;989;53.016;8.346;2022-07-10T10:29:03;17.50;1.00
1978;DHT22;989;53.016;8.346;2022-07-10T10:31:30;18.30;1.00
1978;DHT22;989;53.016;8.346;2022-07-10T10:33:58;18.50;1.00
1978;DHT22;989;53.016;8.346;2022-07-10T10:39:03;17.60;1.00
1978;DHT22;989;53.016;8.346;2022-07-10T10:41:40;17.60;1.00
1978;DHT22;989;53.016;8.346;2022-07-10T10:49:17;16.70;1.00
1978;DHT22;989;53.016;8.346;2022-07-10T10:51:58;16.70;1.00
1978;DHT22;989;53.016;8.346;2022-07-10T10:54:25;16.90;1.00
1978;DHT22;989;53.016;8.346;2022-07-10T11:02:32;16.50;1.00
1978;DHT22;989;53.016;8.346;2022-07-10T11:08:03;16.80;1.00
1978;DHT22;989;53.016;8.346;2022-07-10T11:13:01;16.90;1.00
1978;DHT22;989;53.016;8.346;2022-07-10T11:15:28;16.90;1.00
1978;DHT22;989;53.016;8.346;2022-07-10T11:18:02;16.90;1.00
1978;DHT22;989;53.016;8.346;2022-07-10T11:20:32;17.10;1.00
1978;DHT22;989;53.016;8.346;2022-07-10T11:26:10;17.50;1.00
1978;DHT22;989;53.016;8.346;2022-07-10T11:28:58;17.60;1.00
1978;DHT22;989;53.016;8.346;2022-07-10T11:31:26;18.00;1.00
1978;DHT22;989;53.016;8.346;2022-07-10T11:33:54;17.70;1.00
1978;DHT22;989;53.016;8.346;2022-07-10T11:36:25;17.90;1.00
1978;DHT22;989;53.016;8.346;2022-07-10T11:39:05;17.60;1.00
1978;DHT22;989;53.016;8.346;2022-07-10T11:41:32;17.40;1.00
1978;DHT22;989;53.016;8.346;2022-07-10T11:44:03;17.10;1.00
1978;DHT22;989;53.016;8.346;2022-07-10T11:46:33;17.10;1.00
1978;DHT22;989;53.016;8.346;2022-07-10T11:49:03;17.20;1.00
1978;DHT22;989;53.016;8.346;2022-07-10T11:51:37;17.20;1.00
1978;DHT22;989;53.016;8.346;2022-07-10T11:54:13;17.00;1.00
1978;DHT22;989;53.016;8.346;2022-07-10T11:56:47;17.00;1.00
1978;DHT22;989;53.016;8.346;2022-07-10T11:59:14;17.10;1.00
1978;DHT22;989;53.016;8.346;2022-07-10T12:01:42;16.80;1.00
1978;DHT22;989;53.016;8.346;2022-07-10T12:04:09;16.60;1.00
1978;DHT22;989;53.016;8.346;2022-07-10T12:06:37;16.40;1.00
1978;DHT22;989;53.016;8.346;2022-07-10T12:09:05;15.90;1.00
1978;DHT22;989;53.016;8.346;2022-07-10T12:11:31;15.60;1.40
1978;DHT22;989;53.016;8.346;2022-07-10T12:14:18;16.00;1.00
1978;DHT22;989;53.016;8.346;2022-07-10T12:16:46;16.40;1.00
1978;DHT22;989;53.016;8.346;2022-07-10T12:19:14;16.60;1.00
1978;DHT22;989;53.016;8.346;2022-07-10T12:21:42;17.00;1.00
1978;DHT22;989;53.016;8.346;2022-07-10T12:24:09;17.40;1.00
1978;DHT22;989;53.016;8.346;2022-07-10T12:26:38;17.70;1.00
1978;DHT22;989;53.016;8.346;2022-07-10T12:29:05;17.90;1.00
1978;DHT22;989;53.016;8.346;2022-07-10T12:31:33;17.90;1.00
1978;DHT22;989;53.016;8.346;2022-07-10T12:34:01;17.90;1.00
1978;DHT22;989;53.016;8.346;2022-07-10T12:36:51;17.70;1.00
1978;DHT22;989;53.016;8.346;2022-07-10T12:39:22;17.50;1.00
1978;DHT22;989;53.016;8.346;2022-07-10T12:42:00;17.50;1.00
1978;DHT22;989;53.016;8.346;2022-07-10T12:44:44;17.40;1.00
1978;DHT22;989;53.016;8.346;2022-07-10T12:47:15;17.30;1.00
1978;DHT22;989;53.016;8.346;2022-07-10T12:52:33;17.90;1.00
1978;DHT22;989;53.016;8.346;2022-07-10T12:55:10;18.00;1.00
1978;DHT22;989;53.016;8.346;2022-07-10T12:57:47;17.30;1.00
1978;DHT22;989;53.016;8.346;2022-07-10T13:00:14;17.10;1.00
1978;DHT22;989;53.016;8.346;2022-07-10T13:02:41;16.80;1.00
1978;DHT22;989;53.016;8.346;2022-07-10T13:05:07;16.80;1.00
1978;DHT22;989;53.016;8.346;2022-07-10T13:07:36;17.00;1.00
1978;DHT22;989;53.016;8.346;2022-07-10T13:10:04;17.10;1.00
1978;DHT22;989;53.016;8.346;2022-07-10T13:12:31;17.10;1.00
1978;DHT22;989;53.016;8.346;2022-07-10T13:14:57;17.40;1.00
1978;DHT22;989;53.016;8.346;2022-07-10T13:17:23;17.60;1.00
1978;DHT22;989;53.016;8.346;2022-07-10T13:19:50;17.80;1.00
1978;DHT22;989;53.016;8.346;2022-07-10T13:22:17;17.40;1.00
1978;DHT22;989;53.016;8.346;2022-07-10T13:24:43;17.20;1.00
1978;DHT22;989;53.016;8.346;2022-07-10T13:27:10;17.40;1.00
1978;DHT22;989;53.016;8.346;2022-07-10T13:29:36;17.20;1.00
1978;DHT22;989;53.016;8.346;2022-07-10T13:32:02;17.10;1.00
1978;DHT22;989;53.016;8.346;2022-07-10T13:34:28;17.40;1.00
1978;DHT22;989;53.016;8.346;2022-07-10T13:36:55;18.90;1.00
1978;DHT22;989;53.016;8.346;2022-07-10T13:39:21;20.10;1.00
1978;DHT22;989;53.016;8.346;2022-07-10T13:41:47;21.60;1.00
1978;DHT22;989;53.016;8.346;2022-07-10T13:44:13;21.40;1.00
1978;DHT22;989;53.016;8.346;2022-07-10T13:46:39;20.90;1.00
1978;DHT22;989;53.016;8.346;2022-07-10T13:49:06;20.00;1.00
1978;DHT22;989;53.016;8.346;2022-07-10T13:51:33;19.10;1.00
1978;DHT22;989;53.016;8.346;2022-07-10T13:53:59;18.70;1.00
1978;DHT22;989;53.016;8.346;2022-07-10T13:56:25;18.70;1.00
1978;DHT22;989;53.016;8.346;2022-07-10T13:58:51;18.90;1.00
1978;DHT22;989;53.016;8.346;2022-07-10T14:01:18;18.70;1.00
1978;DHT22;989;53.016;8.346;2022-07-10T14:03:44;18.40;1.00
1978;DHT22;989;53.016;8.346;2022-07-10T14:06:10;17.80;1.00
1978;DHT22;989;53.016;8.346;2022-07-10T14:08:36;18.20;1.00
1978;DHT22;989;53.016;8.346;2022-07-10T14:11:02;18.50;1.00
1978;DHT22;989;53.016;8.346;2022-07-10T14:13:28;18.80;1.00
1978;DHT22;989;53.016;8.346;2022-07-10T14:15:54;18.80;1.00
1978;DHT22;989;53.016;8.346;2022-07-10T14:18:21;18.60;1.00
1978;DHT22;989;53.016;8.346;2022-07-10T14:21:11;18.20;1.00
1978;DHT22;989;53.016;8.346;2022-07-10T14:23:40;17.80;1.00
1978;DHT22;989;53.016;8.346;2022-07-10T14:26:07;18.00;1.00
1978;DHT22;989;53.016;8.346;2022-07-10T14:28:34;18.40;1.00
1978;DHT22;989;53.016;8.346;2022-07-10T14:31:05;18.90;1.00
1978;DHT22;989;53.016;8.346;2022-07-10T14:33:32;19.40;1.00
1978;DHT22;989;53.016;8.346;2022-07-10T14:35:59;19.90;1.00
1978;DHT22;989;53.016;8.346;2022-07-10T14:38:25;19.40;1.00
1978;DHT22;989;53.016;8.346;2022-07-10T14:40:52;19.50;1.00
1978;DHT22;989;53.016;8.346;2022-07-10T14:43:22;19.30;1.00
1978;DHT22;989;53.016;8.346;2022-07-10T14:45:48;19.30;1.00
1978;DHT22;989;53.016;8.346;2022-07-10T14:48:14;19.10;1.00
1978;DHT22;989;53.016;8.346;2022-07-10T14:50:40;18.70;1.00
1978;DHT22;989;53.016;8.346;2022-07-10T14:53:07;18.60;1.00
1978;DHT22;989;53.016;8.346;2022-07-10T14:55:35;18.30;1.00
1978;DHT22;989;53.016;8.346;2022-07-10T14:58:01;18.60;1.00
1978;DHT22;989;53.016;8.346;2022-07-10T15:00:28;18.70;1.00
1978;DHT22;989;53.016;8.346;2022-07-10T15:02:54;18.40;1.00
1978;DHT22;989;53.016;8.346;2022-07-10T15:05:20;18.20;1.00
1978;DHT22;989;53.016;8.346;2022-07-10T15:07:46;18.20;1.00
1978;DHT22;989;53.016;8.346;2022-07-10T15:10:12;18.00;1.00
1978;DHT22;989;53.016;8.346;2022-07-10T15:12:38;17.90;1.00
1978;DHT22;989;53.016;8.346;2022-07-10T15:15:05;17.90;1.00
1978;DHT22;989;53.016;8.346;2022-07-10T15:17:34;18.10;1.00
1978;DHT22;989;53.016;8.346;2022-07-10T15:20:01;18.00;1.00
1978;DHT22;989;53.016;8.346;2022-07-10T15:22:28;18.00;1.00
1978;DHT22;989;53.016;8.346;2022-07-10T15:24:54;18.10;1.00
1978;DHT22;989;53.016;8.346;2022-07-10T15:27:20;18.40;1.00
1978;DHT22;989;53.016;8.346;2022-07-10T15:29:46;18.30;1.00
1978;DHT22;989;53.016;8.346;2022-07-10T15:32:12;17.80;1.00
1978;DHT22;989;53.016;8.346;2022-07-10T15:34:38;17.60;1.00
1978;DHT22;989;53.016;8.346;2022-07-10T15:37:04;17.50;1.00
1978;DHT22;989;53.016;8.346;2022-07-10T15:39:31;17.60;1.00
1978;DHT22;989;53.016;8.346;2022-07-10T15:42:10;17.70;1.00
1978;DHT22;989;53.016;8.346;2022-07-10T15:44:36;18.10;1.00
1978;DHT22;989;53.016;8.346;2022-07-10T15:47:03;17.90;1.00
1978;DHT22;989;53.016;8.346;2022-07-10T15:49:30;17.70;1.00
1978;DHT22;989;53.016;8.346;2022-07-10T15:51:56;17.70;1.00
1978;DHT22;989;53.016;8.346;2022-07-10T15:54:26;17.60;1.00
1978;DHT22;989;53.016;8.346;2022-07-10T15:56:52;17.70;1.00
1978;DHT22;989;53.016;8.346;2022-07-10T15:59:18;17.50;1.00
1978;DHT22;989;53.016;8.346;2022-07-10T16:01:52;17.30;1.00
1978;DHT22;989;53.016;8.346;2022-07-10T16:04:19;17.10;1.00
1978;DHT22;989;53.016;8.346;2022-07-10T16:06:45;17.20;1.00
1978;DHT22;989;53.016;8.346;2022-07-10T16:09:12;17.40;1.00
1978;DHT22;989;53.016;8.346;2022-07-10T16:11:38;17.50;1.00
1978;DHT22;989;53.016;8.346;2022-07-10T16:14:04;17.40;1.00
1978;DHT22;989;53.016;8.346;2022-07-10T16:16:31;17.50;1.00
1978;DHT22;989;53.016;8.346;2022-07-10T16:18:57;17.30;1.00
1978;DHT22;989;53.016;8.346;2022-07-10T16:21:23;17.30;1.00
1978;DHT22;989;53.016;8.346;2022-07-10T16:23:49;17.50;1.00
1978;DHT22;989;53.016;8.346;2022-07-10T16:26:17;17.60;1.00
1978;DHT22;989;53.016;8.346;2022-07-10T16:28:45;17.60;1.00
1978;DHT22;989;53.016;8.346;2022-07-10T16:31:12;17.90;1.00
1978;DHT22;989;53.016;8.346;2022-07-10T16:33:38;17.90;1.00
1978;DHT22;989;53.016;8.346;2022-07-10T16:36:07;17.90;1.00
1978;DHT22;989;53.016;8.346;2022-07-10T16:38:33;17.80;1.00
1978;DHT22;989;53.016;8.346;2022-07-10T16:40:59;17.60;1.00
1978;DHT22;989;53.016;8.346;2022-07-10T16:43:26;17.30;1.00
1978;DHT22;989;53.016;8.346;2022-07-10T16:45:56;17.30;1.00
1978;DHT22;989;53.016;8.346;2022-07-10T16:48:22;17.10;1.00
1978;DHT22;989;53.016;8.346;2022-07-10T16:50:52;17.20;1.00
1978;DHT22;989;53.016;8.346;2022-07-10T16:53:18;17.30;1.00
1978;DHT22;989;53.016;8.346;2022-07-10T16:55:45;17.30;1.00
1978;DHT22;989;53.016;8.346;2022-07-10T16:58:11;17.40;1.00
1978;DHT22;989;53.016;8.346;2022-07-10T17:00:37;17.40;1.00